Time;durP1;ratioP1;P1;durP2;ratioP2;P2;SDS_P1;SDS_P2;PMS_P1;PMS_P2;Temp;Humidity;BMP_temperature;BMP_pressure;BME280_temperature;BME280_humidity;BME280_pressure;Samples;Min_cycle;Max_cycle;Signal;HPM_P1;HPM_P2
2022/03/18 00:00:55;;;;;;;17.83;6.80;;;4.10;99.90;;;;;;4992753;28;20204;-57
2022/03/18 00:03:24;;;;;;;12.05;6.40;;;4.10;99.90;;;;;;4992628;28;20224;-58
2022/03/18 00:05:51;;;;;;;9.93;6.38;;;4.10;99.90;;;;;;4992147;28;20215;-56
2022/03/18 00:08:18;;;;;;;17.77;6.93;;;4.10;99.90;;;;;;4994521;28;20204;-58
2022/03/18 00:10:45;;;;;;;17.73;6.50;;;4.00;99.90;;;;;;4991937;28;20211;-58
2022/03/18 00:13:12;;;;;;;16.88;6.60;;;4.00;99.90;;;;;;4992123;28;20278;-58
2022/03/18 00:15:39;;;;;;;10.73;6.05;;;3.90;99.90;;;;;;4992049;28;20204;-54
2022/03/18 00:18:06;;;;;;;17.90;7.35;;;3.90;99.90;;;;;;4992226;28;20211;-57
2022/03/18 00:20:35;;;;;;;12.80;6.68;;;3.80;99.90;;;;;;4991114;28;20284;-58
2022/03/18 00:23:02;;;;;;;20.52;7.25;;;3.80;99.90;;;;;;4990621;28;20231;-58
2022/03/18 00:25:29;;;;;;;11.10;6.38;;;3.80;99.90;;;;;;4993427;28;20212;-57
2022/03/18 00:27:56;;;;;;;13.13;6.57;;;3.70;99.90;;;;;;4994146;28;20216;-58
2022/03/18 00:30:24;;;;;;;16.77;8.00;;;3.70;99.90;;;;;;4994062;28;20787;-58
2022/03/18 00:32:51;;;;;;;9.38;6.32;;;3.60;99.90;;;;;;4994313;28;20235;-57
2022/03/18 00:35:19;;;;;;;10.98;5.50;;;3.60;99.90;;;;;;4994242;28;20318;-57
2022/03/18 00:37:48;;;;;;;17.92;7.00;;;3.60;99.90;;;;;;4994677;28;20204;-57
2022/03/18 00:40:15;;;;;;;13.98;6.78;;;3.50;99.90;;;;;;4994332;28;20207;-58
2022/03/18 00:42:42;;;;;;;23.15;8.20;;;3.50;99.90;;;;;;4994694;28;20227;-57
2022/03/18 00:45:10;;;;;;;14.25;5.85;;;3.50;99.90;;;;;;4994149;28;20206;-57
2022/03/18 00:53:08;;;;;;;16.27;7.78;;;3.40;99.90;;;;;;4994594;28;20301;-57
2022/03/18 00:55:35;;;;;;;13.95;6.30;;;3.40;99.90;;;;;;4994433;28;20676;-58
2022/03/18 00:58:02;;;;;;;16.70;7.90;;;3.30;99.90;;;;;;4993836;28;20204;-57
2022/03/18 01:00:29;;;;;;;14.85;8.57;;;3.30;99.90;;;;;;4993981;28;20580;-58
2022/03/18 01:02:56;;;;;;;20.38;8.18;;;3.30;99.90;;;;;;4993737;28;20733;-57
2022/03/18 01:05:23;;;;;;;19.65;9.75;;;3.30;99.90;;;;;;4993785;28;20606;-58
2022/03/18 01:07:50;;;;;;;13.55;8.15;;;3.30;99.90;;;;;;4993897;28;20208;-56
2022/03/18 01:10:19;;;;;;;15.40;7.00;;;3.20;99.90;;;;;;4993930;28;20214;-56
2022/03/18 01:12:46;;;;;;;20.92;8.20;;;3.20;99.90;;;;;;4993530;28;20228;-58
2022/03/18 01:15:13;;;;;;;17.05;8.32;;;3.10;99.90;;;;;;4993380;28;20695;-58
2022/03/18 01:17:40;;;;;;;15.93;8.85;;;3.10;99.90;;;;;;4993588;28;20206;-58
2022/03/18 01:20:08;;;;;;;12.77;8.52;;;3.00;99.90;;;;;;4994000;28;20577;-58
2022/03/18 01:22:36;;;;;;;14.15;8.88;;;3.00;99.90;;;;;;4993469;28;20235;-58
2022/03/18 01:25:03;;;;;;;15.68;9.35;;;2.90;99.90;;;;;;4993323;28;20200;-59
2022/03/18 01:27:32;;;;;;;18.40;9.15;;;2.90;99.90;;;;;;4993623;28;20203;-58
2022/03/18 01:29:59;;;;;;;12.88;8.63;;;2.90;99.90;;;;;;4993628;28;20204;-57
2022/03/18 01:32:26;;;;;;;16.30;10.00;;;2.90;99.90;;;;;;4993007;28;20643;-57
2022/03/18 01:34:54;;;;;;;19.17;9.60;;;2.80;99.90;;;;;;4993236;28;20277;-58
2022/03/18 01:37:21;;;;;;;15.55;9.82;;;2.80;99.90;;;;;;4992413;28;20683;-57
2022/03/18 01:39:48;;;;;;;16.33;9.52;;;2.70;99.90;;;;;;4993372;28;20204;-58
2022/03/18 01:42:15;;;;;;;13.90;8.85;;;2.70;99.90;;;;;;4993269;28;20228;-57
2022/03/18 01:44:47;;;;;;;16.42;9.40;;;2.70;99.90;;;;;;4992849;28;20207;-58
2022/03/18 01:47:14;;;;;;;21.25;10.32;;;2.60;99.90;;;;;;4993260;28;20199;-57
2022/03/18 01:49:42;;;;;;;17.60;9.77;;;2.60;99.90;;;;;;4993031;28;20208;-57
2022/03/18 01:52:10;;;;;;;14.60;9.45;;;2.60;99.90;;;;;;4993035;28;20323;-56
2022/03/18 01:54:48;;;;;;;14.98;9.30;;;2.60;99.90;;;;;;4992986;28;20231;-58
2022/03/18 01:57:18;;;;;;;14.38;9.52;;;2.50;99.90;;;;;;4992750;28;20229;-58
2022/03/18 01:59:47;;;;;;;18.00;9.77;;;2.50;99.90;;;;;;4994817;28;20192;-56
2022/03/18 02:02:15;;;;;;;18.98;9.73;;;2.50;99.90;;;;;;4994526;28;20224;-56
2022/03/18 02:04:42;;;;;;;12.60;9.10;;;2.40;99.90;;;;;;4994110;28;20206;-57
2022/03/18 02:07:09;;;;;;;22.30;10.95;;;2.40;99.90;;;;;;4995011;28;20231;-57
2022/03/18 02:09:39;;;;;;;20.73;11.20;;;2.40;99.90;;;;;;4993669;28;20239;-57
2022/03/18 02:12:07;;;;;;;15.73;10.57;;;2.40;99.90;;;;;;4993345;28;20223;-58
2022/03/18 02:14:37;;;;;;;14.20;9.95;;;2.40;99.90;;;;;;4993893;28;20233;-57
2022/03/18 02:17:06;;;;;;;17.42;10.73;;;2.40;99.90;;;;;;4993535;28;20573;-57
2022/03/18 02:19:34;;;;;;;20.70;11.55;;;2.40;99.90;;;;;;4994990;28;20203;-57
2022/03/18 02:22:05;;;;;;;14.98;10.52;;;2.40;99.90;;;;;;4993648;28;20738;-56
2022/03/18 02:24:33;;;;;;;19.45;10.32;;;2.30;99.90;;;;;;4994332;28;20196;-55
2022/03/18 02:27:01;;;;;;;16.25;10.70;;;2.30;99.90;;;;;;4993749;28;20208;-56
2022/03/18 02:29:29;;;;;;;15.52;10.43;;;2.30;99.90;;;;;;4993254;28;20249;-57
2022/03/18 02:31:56;;;;;;;22.85;11.27;;;2.30;99.90;;;;;;4992609;28;20227;-58
2022/03/18 02:34:24;;;;;;;18.23;10.63;;;2.30;99.90;;;;;;4992659;28;20220;-57
2022/03/18 02:36:51;;;;;;;15.60;10.57;;;2.30;99.90;;;;;;4992664;28;20257;-57
2022/03/18 02:39:18;;;;;;;31.98;11.70;;;2.30;99.90;;;;;;4992634;28;20214;-54
2022/03/18 02:41:47;;;;;;;22.30;13.15;;;2.30;99.90;;;;;;4992063;28;20208;-57
2022/03/18 02:44:14;;;;;;;22.45;12.70;;;2.20;99.90;;;;;;4991907;28;20686;-57
2022/03/18 02:46:41;;;;;;;18.65;12.57;;;2.20;99.90;;;;;;4992119;28;20207;-56
2022/03/18 02:49:08;;;;;;;16.33;11.80;;;2.20;99.90;;;;;;4990553;28;20277;-57
2022/03/18 02:51:37;;;;;;;15.32;10.38;;;2.10;99.90;;;;;;4991612;28;20694;-58
2022/03/18 02:54:05;;;;;;;17.63;10.20;;;2.10;99.90;;;;;;4991696;28;20203;-56
2022/03/18 02:56:33;;;;;;;16.05;11.27;;;2.00;99.90;;;;;;4992719;28;20667;-57
2022/03/18 02:59:03;;;;;;;18.33;10.60;;;2.00;99.90;;;;;;4991944;28;20204;-59
2022/03/18 03:01:31;;;;;;;14.30;11.13;;;1.90;99.90;;;;;;4991670;28;20195;-58
2022/03/18 03:03:59;;;;;;;19.75;10.65;;;1.90;99.90;;;;;;4991692;28;20200;-58
2022/03/18 03:09:10;;;;;;;12.93;10.18;;;1.80;99.90;;;;;;4991643;28;20650;-57
2022/03/18 03:11:38;;;;;;;16.00;10.43;;;1.80;99.90;;;;;;4991706;28;20211;-56
2022/03/18 03:14:06;;;;;;;19.00;11.13;;;1.80;99.90;;;;;;4991670;28;20286;-57
2022/03/18 03:16:34;;;;;;;23.15;12.98;;;1.80;99.90;;;;;;4991453;28;20207;-58
2022/03/18 03:19:03;;;;;;;14.85;10.00;;;1.70;99.90;;;;;;4991775;28;20622;-57
2022/03/18 03:21:30;;;;;;;15.80;11.20;;;1.70;99.90;;;;;;4991373;28;20247;-58
2022/03/18 03:23:58;;;;;;;19.40;11.05;;;1.70;99.90;;;;;;4991556;28;20222;-58
2022/03/18 03:26:25;;;;;;;24.63;11.60;;;1.70;99.90;;;;;;4991731;28;20204;-57
2022/03/18 03:28:52;;;;;;;18.15;11.70;;;1.70;99.90;;;;;;4991471;28;20204;-56
2022/03/18 03:31:20;;;;;;;17.17;10.93;;;1.70;99.90;;;;;;4991440;28;20212;-58
2022/03/18 03:33:47;;;;;;;22.15;12.40;;;1.70;99.90;;;;;;4991015;28;20228;-57
2022/03/18 03:36:14;;;;;;;15.77;10.95;;;1.70;99.90;;;;;;4991380;28;20250;-57
2022/03/18 03:38:42;;;;;;;25.85;11.05;;;1.60;99.90;;;;;;4991590;28;20211;-58
2022/03/18 03:41:09;;;;;;;15.70;10.80;;;1.60;99.90;;;;;;4991005;28;20210;-57
2022/03/18 03:43:36;;;;;;;18.65;10.55;;;1.60;99.90;;;;;;4991277;28;20224;-57
2022/03/18 03:46:03;;;;;;;18.63;10.35;;;1.60;99.90;;;;;;4991071;28;20200;-57
2022/03/18 03:48:32;;;;;;;16.02;9.73;;;1.60;99.90;;;;;;4991291;28;20295;-56
2022/03/18 03:50:59;;;;;;;18.17;11.55;;;1.60;99.90;;;;;;4991194;28;20207;-57
2022/03/18 03:53:26;;;;;;;17.42;11.57;;;1.60;99.90;;;;;;4991200;28;20596;-57
2022/03/18 03:55:54;;;;;;;20.00;11.13;;;1.60;99.90;;;;;;4991044;28;20223;-58
2022/03/18 03:58:21;;;;;;;16.40;10.63;;;1.60;99.90;;;;;;4990863;28;20211;-58
2022/03/18 04:00:48;;;;;;;17.52;11.27;;;1.50;99.90;;;;;;4990825;28;20584;-58
2022/03/18 04:03:15;;;;;;;18.00;10.25;;;1.50;99.90;;;;;;4991001;28;20273;-57
2022/03/18 04:05:44;;;;;;;15.50;10.75;;;1.50;99.90;;;;;;4990846;28;20609;-58
2022/03/18 04:09:28;;;;;;;15.63;10.85;;;1.40;99.90;;;;;;5152906;27;20537;-58
2022/03/18 04:11:55;;;;;;;16.50;11.07;;;1.40;99.90;;;;;;5152143;27;20229;-57
2022/03/18 04:14:22;;;;;;;20.23;11.93;;;1.40;99.90;;;;;;5152188;27;20202;-59
2022/03/18 04:16:49;;;;;;;16.15;11.57;;;1.40;99.90;;;;;;5151913;27;20607;-59
2022/03/18 04:19:17;;;;;;;15.35;10.45;;;1.40;99.90;;;;;;5151942;27;20206;-58
2022/03/18 04:21:45;;;;;;;18.65;10.52;;;1.30;99.90;;;;;;5168438;22;20227;-56
2022/03/18 04:24:12;;;;;;;15.75;10.35;;;1.30;99.90;;;;;;5113535;28;20199;-56
2022/03/18 04:26:40;;;;;;;17.25;11.35;;;1.30;99.90;;;;;;5113389;28;20204;-56
2022/03/18 04:29:10;;;;;;;16.27;11.10;;;1.20;99.90;;;;;;5115374;28;20306;-57
2022/03/18 04:31:37;;;;;;;17.30;11.10;;;1.20;99.90;;;;;;5114253;28;20595;-57
2022/03/18 04:34:04;;;;;;;14.88;10.93;;;1.20;99.90;;;;;;5117740;28;20205;-56
2022/03/18 04:36:31;;;;;;;14.40;10.65;;;1.20;99.90;;;;;;5124409;28;20573;-57
2022/03/18 04:38:59;;;;;;;17.80;11.18;;;1.20;99.90;;;;;;5123765;28;20207;-56
2022/03/18 04:41:26;;;;;;;22.00;11.10;;;1.10;99.90;;;;;;5123278;28;20257;-55
2022/03/18 04:43:54;;;;;;;18.35;11.50;;;1.10;99.90;;;;;;5123681;28;20575;-56
2022/03/18 04:46:22;;;;;;;14.65;11.45;;;1.10;99.90;;;;;;5112257;28;20208;-56
2022/03/18 04:48:49;;;;;;;19.63;12.00;;;1.00;99.90;;;;;;5111475;28;20219;-56
2022/03/18 04:51:16;;;;;;;16.05;10.50;;;1.10;99.90;;;;;;5111338;28;20211;-57
2022/03/18 04:53:52;;;;;;;19.70;11.57;;;1.00;99.90;;;;;;5116852;28;20207;-55
2022/03/18 04:59:01;;;;;;;17.20;10.93;;;1.00;99.90;;;;;;5096426;28;20195;-56
2022/03/18 05:01:29;;;;;;;19.02;11.98;;;1.00;99.90;;;;;;5116440;28;20697;-56
2022/03/18 05:03:56;;;;;;;24.75;11.25;;;1.00;99.90;;;;;;5122441;28;20227;-56
2022/03/18 05:06:23;;;;;;;20.73;11.10;;;1.00;99.90;;;;;;5121877;28;20656;-56
2022/03/18 05:08:50;;;;;;;19.77;11.05;;;1.00;99.90;;;;;;5121027;28;20219;-56
2022/03/18 05:11:17;;;;;;;15.13;9.77;;;1.00;99.90;;;;;;5122905;28;20203;-57
2022/03/18 05:13:44;;;;;;;13.30;10.00;;;1.00;99.90;;;;;;5122255;28;20199;-56
2022/03/18 05:16:14;;;;;;;15.77;11.23;;;0.90;99.90;;;;;;5117676;28;20204;-55
2022/03/18 05:18:42;;;;;;;16.85;11.25;;;0.90;99.90;;;;;;5116780;28;20573;-56
2022/03/18 05:21:09;;;;;;;11.82;9.80;;;0.90;99.90;;;;;;5102174;28;20664;-56
2022/03/18 05:23:37;;;;;;;18.33;10.40;;;0.90;99.90;;;;;;5099268;28;20236;-52
2022/03/18 05:26:04;;;;;;;19.95;11.02;;;0.90;99.90;;;;;;5098920;28;20201;-55
2022/03/18 05:28:31;;;;;;;14.25;10.00;;;0.90;99.90;;;;;;5098479;28;20228;-55
2022/03/18 05:30:59;;;;;;;15.95;10.95;;;0.90;99.90;;;;;;5097930;28;20208;-56
2022/03/18 05:33:27;;;;;;;18.30;10.73;;;0.90;99.90;;;;;;5097166;28;20720;-56
2022/03/18 05:35:54;;;;;;;14.60;10.15;;;0.90;99.90;;;;;;5098217;28;20200;-55
2022/03/18 05:38:21;;;;;;;22.25;10.85;;;1.00;99.90;;;;;;5096686;28;20200;-55
2022/03/18 05:40:48;;;;;;;15.77;11.07;;;1.00;99.90;;;;;;5096496;28;20208;-56
2022/03/18 05:43:15;;;;;;;16.08;11.73;;;1.10;99.90;;;;;;5095943;28;20731;-56
2022/03/18 05:45:43;;;;;;;16.13;10.57;;;1.10;99.90;;;;;;5096564;28;20208;-55
2022/03/18 05:48:10;;;;;;;18.48;12.10;;;1.10;99.90;;;;;;5096246;28;20213;-57
2022/03/18 05:50:38;;;;;;;18.55;11.35;;;1.20;99.90;;;;;;5096617;28;20197;-54
2022/03/18 05:53:06;;;;;;;14.60;10.90;;;1.20;99.90;;;;;;5096753;28;20216;-56
2022/03/18 05:58:16;;;;;;;20.17;10.90;;;1.20;99.90;;;;;;5095705;28;20193;-56
2022/03/18 06:00:44;;;;;;;16.05;11.25;;;1.20;99.90;;;;;;5095585;28;20207;-54
2022/03/18 06:03:12;;;;;;;16.15;10.60;;;1.20;99.90;;;;;;5095695;28;20223;-55
2022/03/18 06:05:42;;;;;;;17.33;11.98;;;1.30;99.90;;;;;;5096498;28;20753;-55
2022/03/18 06:13:39;;;;;;;16.95;10.98;;;1.30;99.90;;;;;;5105657;28;20293;-54
2022/03/18 06:16:06;;;;;;;18.70;10.60;;;1.30;99.90;;;;;;5103849;28;20291;-55
2022/03/18 06:18:34;;;;;;;18.95;11.10;;;1.40;99.90;;;;;;5101760;28;20196;-55
2022/03/18 06:21:06;;;;;;;13.40;11.38;;;1.50;99.90;;;;;;5100935;28;20763;-54
2022/03/18 06:23:33;;;;;;;15.35;11.55;;;1.60;99.90;;;;;;5099082;28;20314;-55
2022/03/18 06:26:01;;;;;;;16.45;11.25;;;1.60;99.90;;;;;;5095658;28;20204;-54
2022/03/18 06:28:28;;;;;;;18.52;10.77;;;1.70;99.90;;;;;;5094906;28;20398;-54
2022/03/18 06:30:55;;;;;;;17.85;12.13;;;1.80;99.90;;;;;;5094267;28;20196;-55
2022/03/18 06:33:23;;;;;;;17.55;11.10;;;1.90;99.90;;;;;;5095243;28;20220;-54
2022/03/18 06:35:50;;;;;;;13.85;10.50;;;1.90;99.90;;;;;;5095560;28;20210;-55
2022/03/18 06:38:18;;;;;;;21.10;11.10;;;2.10;99.90;;;;;;5095775;28;20540;-55
2022/03/18 06:40:46;;;;;;;14.02;10.50;;;2.20;99.90;;;;;;5095029;28;20196;-54
2022/03/18 06:43:13;;;;;;;16.52;9.85;;;2.30;99.90;;;;;;5096195;28;20308;-55
2022/03/18 06:45:41;;;;;;;19.48;11.15;;;2.40;99.90;;;;;;5095579;28;20201;-55
2022/03/18 06:48:08;;;;;;;16.23;9.85;;;2.50;99.90;;;;;;5096145;28;20697;-55
2022/03/18 06:50:35;;;;;;;17.02;8.60;;;2.60;99.90;;;;;;5097443;28;20329;-56
2022/03/18 06:53:03;;;;;;;15.88;10.32;;;2.70;99.90;;;;;;5095189;28;20228;-55
2022/03/18 06:55:31;;;;;;;14.95;8.57;;;2.80;99.90;;;;;;5094841;28;20257;-55
2022/03/18 06:57:58;;;;;;;17.38;8.60;;;2.90;99.90;;;;;;5095327;28;20204;-55
2022/03/18 07:00:26;;;;;;;20.63;9.60;;;3.10;99.90;;;;;;5095386;28;20197;-54
2022/03/18 07:02:53;;;;;;;16.95;7.95;;;3.20;99.90;;;;;;5095090;28;20220;-56
2022/03/18 07:05:20;;;;;;;14.35;7.72;;;3.40;99.90;;;;;;5095491;28;20676;-56
2022/03/18 07:07:48;;;;;;;12.93;7.28;;;3.50;99.90;;;;;;5095637;28;20196;-56
2022/03/18 07:10:15;;;;;;;13.55;7.65;;;3.60;99.90;;;;;;5095688;28;20245;-56
2022/03/18 07:12:43;;;;;;;9.80;7.53;;;3.70;99.90;;;;;;5094754;28;20235;-57
2022/03/18 07:15:11;;;;;;;11.45;7.35;;;3.90;99.90;;;;;;5094113;28;20241;-56
2022/03/18 07:17:55;;;;;;;16.45;8.00;;;4.00;99.90;;;;;;5094232;28;20207;-56
2022/03/18 07:20:23;;;;;;;12.52;8.40;;;4.10;99.90;;;;;;5094487;28;20176;-55
2022/03/18 07:23:00;;;;;;;13.15;8.18;;;4.30;99.90;;;;;;5094076;28;20232;-56
2022/03/18 07:25:28;;;;;;;10.23;6.95;;;4.40;99.90;;;;;;5094714;28;20213;-54
2022/03/18 07:27:56;;;;;;;12.48;7.57;;;4.50;99.90;;;;;;5094465;28;20204;-56
2022/03/18 07:30:24;;;;;;;14.18;7.70;;;4.60;99.90;;;;;;5094246;28;20224;-57
2022/03/18 07:32:52;;;;;;;20.75;8.65;;;4.70;99.90;;;;;;5093852;28;20227;-55
2022/03/18 07:35:19;;;;;;;12.82;7.22;;;4.80;99.90;;;;;;5094305;28;20604;-55
2022/03/18 07:37:47;;;;;;;9.52;6.78;;;4.90;99.90;;;;;;5094241;28;20205;-54
2022/03/18 07:40:15;;;;;;;12.82;7.43;;;5.10;99.90;;;;;;5094197;28;20200;-56
2022/03/18 07:42:44;;;;;;;14.35;7.43;;;5.20;99.90;;;;;;5093691;28;20228;-56
2022/03/18 07:45:17;;;;;;;13.30;7.32;;;5.30;99.90;;;;;;5094185;28;20200;-55
2022/03/18 07:47:44;;;;;;;14.95;8.20;;;5.40;99.90;;;;;;5094299;28;20201;-57
2022/03/18 07:50:12;;;;;;;9.95;8.02;;;5.50;99.90;;;;;;5094015;28;20718;-55
2022/03/18 07:52:39;;;;;;;14.77;7.90;;;5.70;99.90;;;;;;5093591;28;20723;-56
2022/03/18 07:55:07;;;;;;;16.58;7.90;;;5.80;99.90;;;;;;5093831;28;20208;-56
2022/03/18 07:57:34;;;;;;;11.00;7.82;;;5.90;99.90;;;;;;5093609;28;20691;-56
2022/03/18 08:00:02;;;;;;;16.40;6.40;;;6.10;99.90;;;;;;5093805;28;20196;-57
2022/03/18 08:02:30;;;;;;;16.98;6.90;;;6.20;99.90;;;;;;5095443;28;20224;-57
2022/03/18 08:04:57;;;;;;;12.48;6.40;;;6.30;99.90;;;;;;5100512;28;20641;-56
2022/03/18 08:07:26;;;;;;;12.05;5.90;;;6.40;99.90;;;;;;5098130;28;20518;-57
2022/03/18 08:09:53;;;;;;;16.58;6.28;;;6.60;99.90;;;;;;5093846;28;20216;-57
2022/03/18 08:12:21;;;;;;;10.13;5.65;;;6.70;99.90;;;;;;5093631;28;20269;-57
2022/03/18 08:14:48;;;;;;;11.63;5.72;;;6.80;99.90;;;;;;5093866;28;20199;-57
2022/03/18 08:17:15;;;;;;;10.60;5.80;;;6.90;99.90;;;;;;5093852;28;20200;-57
2022/03/18 08:19:44;;;;;;;13.32;5.13;;;7.00;99.90;;;;;;5093897;28;20201;-57
2022/03/18 08:22:11;;;;;;;11.00;5.15;;;7.00;99.90;;;;;;5093855;28;20232;-55
2022/03/18 08:24:38;;;;;;;6.47;4.70;;;7.10;99.90;;;;;;5093670;28;20223;-56
2022/03/18 08:27:06;;;;;;;17.38;6.63;;;7.20;99.90;;;;;;5093592;28;20196;-56
2022/03/18 08:29:33;;;;;;;6.45;4.32;;;7.30;99.90;;;;;;5093848;28;20641;-57
2022/03/18 08:32:00;;;;;;;7.53;4.22;;;7.40;99.90;;;;;;5094423;28;20220;-56
2022/03/18 08:34:27;;;;;;;6.90;4.20;;;7.50;99.90;;;;;;5093879;28;20207;-55
2022/03/18 08:36:56;;;;;;;11.15;4.13;;;7.60;99.90;;;;;;5094159;28;20207;-57
2022/03/18 08:39:24;;;;;;;7.30;4.05;;;7.60;99.90;;;;;;5094252;28;20207;-56
2022/03/18 08:41:51;;;;;;;17.73;4.03;;;7.70;99.90;;;;;;5095040;28;20269;-55
2022/03/18 08:44:19;;;;;;;12.45;4.40;;;7.70;99.90;;;;;;5094761;28;20672;-56
2022/03/18 08:46:46;;;;;;;10.90;4.72;;;7.70;99.90;;;;;;5096385;28;20200;-56
2022/03/18 08:49:14;;;;;;;13.60;3.95;;;7.80;99.90;;;;;;5093754;28;20228;-57
2022/03/18 08:51:41;;;;;;;7.20;3.67;;;7.80;99.90;;;;;;5093610;28;20220;-55
2022/03/18 08:54:09;;;;;;;12.90;4.25;;;7.80;99.90;;;;;;5095528;28;20228;-56
2022/03/18 08:56:37;;;;;;;13.05;4.55;;;7.90;99.90;;;;;;5103277;28;20200;-56
2022/03/18 08:59:06;;;;;;;9.75;4.70;;;7.90;99.90;;;;;;5112573;28;20211;-56
2022/03/18 09:01:34;;;;;;;9.45;3.90;;;8.00;99.90;;;;;;5113701;28;20257;-57
2022/03/18 09:04:01;;;;;;;9.38;4.07;;;8.10;99.90;;;;;;5108661;28;20216;-56
2022/03/18 09:06:28;;;;;;;10.65;4.75;;;8.30;99.90;;;;;;5106621;28;20204;-56
2022/03/18 09:08:56;;;;;;;12.10;5.20;;;8.40;99.90;;;;;;5105781;28;20224;-56
2022/03/18 09:11:25;;;;;;;15.75;4.88;;;8.50;99.90;;;;;;5106927;28;20200;-56
2022/03/18 09:13:52;;;;;;;13.57;4.57;;;8.70;99.90;;;;;;5107247;28;20661;-56
2022/03/18 09:16:19;;;;;;;13.85;4.25;;;8.80;99.90;;;;;;5108329;28;20208;-56
2022/03/18 09:18:46;;;;;;;17.02;4.32;;;8.90;99.90;;;;;;5108729;28;20200;-55
2022/03/18 09:21:13;;;;;;;11.82;4.00;;;9.00;99.90;;;;;;5106360;28;20283;-58
2022/03/18 09:23:41;;;;;;;10.80;4.13;;;9.10;99.90;;;;;;5105453;28;20216;-56
2022/03/18 09:26:08;;;;;;;10.25;3.65;;;9.10;99.70;;;;;;5102064;28;20203;-57
2022/03/18 09:28:37;;;;;;;11.95;3.92;;;9.10;98.90;;;;;;5097947;28;20724;-57
2022/03/18 09:31:05;;;;;;;12.10;4.10;;;9.10;98.90;;;;;;5097349;28;20575;-56
2022/03/18 09:33:32;;;;;;;13.63;4.63;;;9.00;98.70;;;;;;5096328;28;20742;-57
2022/03/18 09:35:59;;;;;;;9.55;4.18;;;9.10;98.70;;;;;;5096469;28;20204;-57
2022/03/18 09:38:26;;;;;;;9.52;4.03;;;9.20;98.10;;;;;;5096270;28;20242;-57
2022/03/18 09:40:53;;;;;;;12.60;4.68;;;9.20;97.30;;;;;;5096104;28;20683;-55
2022/03/18 09:43:20;;;;;;;10.50;3.95;;;9.30;97.20;;;;;;5097373;28;20220;-57
2022/03/18 09:45:49;;;;;;;15.27;5.63;;;9.50;97.00;;;;;;5102688;28;20204;-57
2022/03/18 09:48:17;;;;;;;6.37;4.40;;;9.60;96.10;;;;;;5113015;28;20211;-56
2022/03/18 09:50:44;;;;;;;12.07;4.43;;;9.80;95.40;;;;;;5111979;28;20517;-56
2022/03/18 09:53:11;;;;;;;9.87;4.87;;;9.90;94.80;;;;;;5112364;28;20466;-57
2022/03/18 09:55:38;;;;;;;8.40;4.67;;;9.90;94.40;;;;;;5110521;28;20446;-57
2022/03/18 09:58:07;;;;;;;8.67;4.83;;;9.90;93.80;;;;;;5109945;28;20449;-55
2022/03/18 10:00:34;;;;;;;10.77;4.07;;;10.00;93.10;;;;;;5105617;28;20446;-57
2022/03/18 10:03:09;;;;;;;10.20;4.23;;;10.00;92.70;;;;;;5105596;28;20458;-57
2022/03/18 10:05:47;;;;;;;9.63;3.83;;;10.00;92.20;;;;;;5101358;28;20438;-59
2022/03/18 10:08:14;;;;;;;10.43;4.07;;;10.00;91.00;;;;;;5098245;28;20432;-59
2022/03/18 10:10:46;;;;;;;8.83;4.03;;;10.00;90.50;;;;;;5096791;28;20523;-58
2022/03/18 10:13:16;;;;;;;8.20;4.30;;;9.90;90.60;;;;;;5096140;28;20462;-59
2022/03/18 10:15:44;;;;;;;8.47;4.40;;;9.90;90.20;;;;;;5095828;28;20495;-59
2022/03/18 10:18:14;;;;;;;10.30;3.87;;;9.90;89.40;;;;;;5096292;28;20445;-57
2022/03/18 10:20:45;;;;;;;9.20;3.53;;;9.90;89.60;;;;;;5095439;28;20533;-58
2022/03/18 10:23:23;;;;;;;8.33;3.70;;;9.90;89.80;;;;;;5096721;28;20577;-57
2022/03/18 10:25:53;;;;;;;11.10;3.53;;;10.00;88.20;;;;;;5095859;28;20454;-57
2022/03/18 10:28:36;;;;;;;11.57;4.40;;;10.10;87.20;;;;;;5095868;28;20442;-57
2022/03/18 10:31:15;;;;;;;8.33;3.80;;;10.30;86.40;;;;;;5095696;28;20462;-56
2022/03/18 10:39:28;;;;;;;6.00;3.47;;;10.70;82.60;;;;;;5095442;28;20394;-56
2022/03/18 10:41:56;;;;;;;10.17;3.10;;;10.80;80.90;;;;;;5094766;28;20469;-58
2022/03/18 10:44:23;;;;;;;9.00;3.70;;;10.90;80.40;;;;;;5094975;28;20446;-57
2022/03/18 10:46:53;;;;;;;8.33;3.57;;;11.00;79.80;;;;;;5094682;28;20445;-57
2022/03/18 10:49:23;;;;;;;14.17;4.60;;;11.00;78.40;;;;;;5095284;28;20485;-57
2022/03/18 10:51:50;;;;;;;6.10;3.13;;;11.10;78.80;;;;;;5094239;28;21027;-56
2022/03/18 10:54:24;;;;;;;7.50;2.80;;;11.30;78.20;;;;;;5094730;28;20545;-54
2022/03/18 10:56:57;;;;;;;6.63;3.30;;;11.40;76.20;;;;;;5097086;28;20451;-57
2022/03/18 10:59:27;;;;;;;7.07;3.23;;;11.50;73.50;;;;;;5100419;28;20438;-57
2022/03/18 11:01:56;;;;;;;6.97;2.80;;;11.40;72.80;;;;;;5096674;28;20474;-57
2022/03/18 11:04:25;;;;;;;7.10;3.30;;;11.40;72.30;;;;;;5103567;28;20864;-57
2022/03/18 11:12:28;;;;;;;5.80;3.33;;;11.50;71.20;;;;;;5112629;28;20509;-57
2022/03/18 11:14:57;;;;;;;5.73;3.47;;;11.60;70.60;;;;;;5113984;28;20435;-57
2022/03/18 11:17:25;;;;;;;6.40;3.90;;;11.70;70.10;;;;;;5111692;28;20447;-57
2022/03/18 11:19:54;;;;;;;8.97;4.37;;;11.80;69.40;;;;;;5111007;28;20465;-55
2022/03/18 11:22:22;;;;;;;6.00;3.57;;;11.80;67.90;;;;;;5109763;28;20457;-57
2022/03/18 11:24:52;;;;;;;7.83;3.30;;;11.80;68.20;;;;;;5102180;28;20822;-56
2022/03/18 11:27:19;;;;;;;7.20;3.97;;;11.90;67.80;;;;;;5106362;28;20437;-57
2022/03/18 11:29:47;;;;;;;9.63;4.33;;;12.00;67.20;;;;;;5104324;28;20998;-56
2022/03/18 11:32:24;;;;;;;8.60;4.30;;;12.10;67.10;;;;;;5103175;28;20459;-58
2022/03/18 11:34:57;;;;;;;5.80;3.40;;;12.10;65.80;;;;;;5104767;28;20532;-57
2022/03/18 11:37:26;;;;;;;11.83;5.60;;;12.00;65.40;;;;;;5105837;28;20430;-57
2022/03/18 11:40:13;;;;;;;9.10;3.90;;;11.90;65.40;;;;;;5106185;28;20467;-56
2022/03/18 11:42:40;;;;;;;6.57;4.17;;;11.80;65.60;;;;;;5107090;28;20473;-57
2022/03/18 11:45:13;;;;;;;4.07;3.10;;;11.70;66.30;;;;;;5105827;28;20529;-57
2022/03/18 11:47:43;;;;;;;7.50;3.70;;;11.70;66.30;;;;;;5104634;28;20480;-56
2022/03/18 11:50:47;;;;;;;6.30;3.07;;;11.80;66.00;;;;;;5101847;28;20494;-56
2022/03/18 11:53:52;;;;;;;8.43;3.80;;;12.00;65.00;;;;;;5097576;28;20454;-57
2022/03/18 11:56:21;;;;;;;7.60;3.47;;;11.90;64.10;;;;;;5097010;28;20423;-56
2022/03/18 11:58:48;;;;;;;4.20;2.73;;;12.00;65.60;;;;;;5096939;28;20442;-57
2022/03/18 12:01:41;;;;;;;8.53;3.20;;;12.20;64.80;;;;;;5095805;28;20487;-59
2022/03/18 12:04:09;;;;;;;7.70;3.43;;;12.30;63.90;;;;;;5097053;28;20442;-58
2022/03/18 12:07:09;;;;;;;5.70;3.23;;;12.40;63.70;;;;;;5096709;28;20446;-57
2022/03/18 12:09:56;;;;;;;4.97;3.27;;;12.60;63.50;;;;;;5095683;28;20430;-57
2022/03/18 12:12:25;;;;;;;6.80;3.13;;;12.80;62.20;;;;;;5095143;28;20493;-56
2022/03/18 12:14:53;;;;;;;8.60;3.27;;;12.80;61.80;;;;;;5096000;28;20443;-57
2022/03/18 12:17:21;;;;;;;6.43;2.87;;;12.80;61.50;;;;;;5094806;28;20462;-58
2022/03/18 12:19:53;;;;;;;8.60;3.47;;;12.80;61.50;;;;;;5094798;28;20514;-58
2022/03/18 12:22:22;;;;;;;8.17;3.10;;;12.80;61.10;;;;;;5094786;28;20469;-58
2022/03/18 12:24:50;;;;;;;8.10;3.47;;;12.80;61.30;;;;;;5095499;28;20447;-57
2022/03/18 12:27:20;;;;;;;6.30;3.33;;;12.80;61.40;;;;;;5095339;28;20453;-57
2022/03/18 12:29:48;;;;;;;5.83;2.97;;;12.90;61.30;;;;;;5102821;28;20442;-57
2022/03/18 12:32:15;;;;;;;7.50;3.50;;;13.00;61.00;;;;;;5112420;28;20454;-58
2022/03/18 12:34:51;;;;;;;5.60;3.00;;;13.10;60.40;;;;;;5113780;28;20530;-57
2022/03/18 12:37:22;;;;;;;7.37;3.03;;;13.10;59.80;;;;;;5113300;28;20457;-57
2022/03/18 12:40:05;;;;;;;8.50;2.63;;;13.10;59.60;;;;;;5109386;28;20430;-57
2022/03/18 12:42:46;;;;;;;3.47;2.43;;;13.10;59.50;;;;;;5096169;28;20470;-57
2022/03/18 12:45:13;;;;;;;8.27;2.53;;;13.20;59.20;;;;;;5100833;28;20835;-56
2022/03/18 12:47:40;;;;;;;5.20;3.00;;;13.20;58.90;;;;;;5104751;28;20938;-57
2022/03/18 12:50:08;;;;;;;5.20;2.90;;;13.20;58.70;;;;;;5102857;28;20481;-57
2022/03/18 12:52:44;;;;;;;7.50;2.93;;;13.20;58.90;;;;;;5097883;28;20819;-57
2022/03/18 12:55:13;;;;;;;4.97;3.00;;;13.20;58.70;;;;;;5097655;28;20446;-58
2022/03/18 12:57:43;;;;;;;7.47;3.30;;;13.20;58.80;;;;;;5098207;28;20438;-56
2022/03/18 13:00:13;;;;;;;6.30;2.43;;;13.10;58.60;;;;;;5097827;28;20441;-58
2022/03/18 13:02:42;;;;;;;6.37;3.10;;;13.10;58.70;;;;;;5097047;28;20500;-57
2022/03/18 13:05:13;;;;;;;4.83;3.10;;;13.30;58.70;;;;;;5097745;28;20930;-58
2022/03/18 13:07:40;;;;;;;4.40;2.60;;;13.30;58.20;;;;;;5097028;28;20454;-56
2022/03/18 13:10:08;;;;;;;5.13;2.60;;;13.20;58.40;;;;;;5097240;28;20482;-57
2022/03/18 13:12:36;;;;;;;5.30;2.30;;;13.30;58.60;;;;;;5097166;28;20473;-57
2022/03/18 13:15:15;;;;;;;6.80;3.40;;;13.20;58.20;;;;;;5096720;28;20954;-58
2022/03/18 13:17:45;;;;;;;3.20;2.30;;;13.10;58.40;;;;;;5097193;28;20438;-58
2022/03/18 13:20:25;;;;;;;2.90;2.13;;;13.10;58.70;;;;;;5096683;28;20963;-56
2022/03/18 13:22:54;;;;;;;3.40;2.57;;;13.10;58.70;;;;;;5104272;28;20482;-57